Time;durP1;ratioP1;P1;durP2;ratioP2;P2;SDS_P1;SDS_P2;PMS_P1;PMS_P2;Temp;Humidity;BMP_temperature;BMP_pressure;BME280_temperature;BME280_humidity;BME280_pressure;Samples;Min_cycle;Max_cycle;Signal;HPM_P1;HPM_P2
2021/12/12 00:01:41;;;;;;;3.25;0.60;;;;;;;;;;5015923;28;20026;-63
2021/12/12 00:04:14;;;;;;;1.58;0.65;;;;;;;;;;5016170;28;20077;-62
2021/12/12 00:06:42;;;;;;;1.45;0.40;;;;;;;;;;5015698;28;20109;-62
2021/12/12 00:09:12;;;;;;;1.15;0.50;;;;;;;;;;5016017;28;20036;-62
2021/12/12 00:11:38;;;;;;;1.50;0.63;;;;;;;;;;5016016;28;20411;-61
2021/12/12 00:14:13;;;;;;;1.85;0.80;;;;;;;;;;5015799;28;20018;-61
2021/12/12 00:16:40;;;;;;;2.75;0.98;;;;;;;;;;5015877;28;20018;-62
2021/12/12 00:19:06;;;;;;;4.68;1.17;;;;;;;;;;5015682;28;20057;-63
2021/12/12 00:21:33;;;;;;;2.30;0.80;;;;;;;;;;5015521;28;20033;-62
2021/12/12 00:24:00;;;;;;;1.55;0.80;;;;;;;;;;5015519;28;20490;-62
2021/12/12 00:26:26;;;;;;;1.45;0.98;;;;;;;;;;5014845;28;20026;-61
2021/12/12 00:28:52;;;;;;;1.80;0.75;;;;;;;;;;5015794;28;20494;-62
2021/12/12 00:31:20;;;;;;;1.98;1.20;;;;;;;;;;5015691;28;20033;-62
2021/12/12 00:33:49;;;;;;;1.75;1.20;;;;;;;;;;5015380;28;20022;-63
2021/12/12 00:36:18;;;;;;;3.05;1.10;;;;;;;;;;5016026;28;20419;-61
2021/12/12 00:38:55;;;;;;;4.97;2.20;;;;;;;;;;5015944;28;20026;-63
2021/12/12 00:41:26;;;;;;;2.28;0.85;;;;;;;;;;5014959;28;20096;-62
2021/12/12 00:43:52;;;;;;;1.30;0.98;;;;;;;;;;5015668;28;20022;-62
2021/12/12 00:46:20;;;;;;;2.15;0.82;;;;;;;;;;5015471;28;20022;-61
2021/12/12 00:48:48;;;;;;;2.85;1.10;;;;;;;;;;5014859;28;20537;-62
2021/12/12 00:51:15;;;;;;;2.80;1.40;;;;;;;;;;5015268;28;20088;-61
2021/12/12 00:53:42;;;;;;;1.83;1.05;;;;;;;;;;5014704;28;20566;-61
2021/12/12 00:56:08;;;;;;;2.17;1.15;;;;;;;;;;5015241;28;20033;-62
2021/12/12 00:58:34;;;;;;;3.00;1.17;;;;;;;;;;5015490;28;20045;-62
2021/12/12 01:01:05;;;;;;;1.95;1.02;;;;;;;;;;5014563;28;20068;-61
2021/12/12 01:03:33;;;;;;;4.10;0.97;;;;;;;;;;5015072;28;20080;-61
2021/12/12 01:06:00;;;;;;;2.88;1.20;;;;;;;;;;5015121;28;20030;-60
2021/12/12 01:08:28;;;;;;;1.63;0.77;;;;;;;;;;5014507;28;20022;-61
2021/12/12 01:10:57;;;;;;;2.17;0.80;;;;;;;;;;5014665;28;20021;-61
2021/12/12 01:13:24;;;;;;;2.88;0.68;;;;;;;;;;5014878;28;20018;-60
2021/12/12 01:15:53;;;;;;;1.35;0.40;;;;;;;;;;5014524;28;20103;-62
2021/12/12 01:18:22;;;;;;;3.22;0.45;;;;;;;;;;5014603;28;20018;-61
2021/12/12 01:20:52;;;;;;;1.13;0.55;;;;;;;;;;5014632;28;20060;-61
2021/12/12 01:23:24;;;;;;;2.50;0.60;;;;;;;;;;5014139;28;20021;-60
2021/12/12 01:25:53;;;;;;;1.50;0.55;;;;;;;;;;5014382;28;20022;-60
2021/12/12 01:28:23;;;;;;;1.90;0.88;;;;;;;;;;5014615;28;20038;-61
2021/12/12 01:30:50;;;;;;;1.83;0.88;;;;;;;;;;5014169;28;20026;-62
2021/12/12 01:33:31;;;;;;;3.25;1.08;;;;;;;;;;5014342;28;20025;-62
2021/12/12 01:35:58;;;;;;;2.08;0.80;;;;;;;;;;5014296;28;20021;-61
2021/12/12 01:41:08;;;;;;;2.70;0.95;;;;;;;;;;5014419;28;20460;-62
2021/12/12 01:43:40;;;;;;;1.60;0.70;;;;;;;;;;5013976;28;20105;-63
2021/12/12 01:46:12;;;;;;;1.92;0.75;;;;;;;;;;5014378;28;20030;-62
2021/12/12 01:48:38;;;;;;;1.38;0.60;;;;;;;;;;5013390;28;20398;-66
2021/12/12 01:51:06;;;;;;;2.17;0.70;;;;;;;;;;5012717;28;20029;-61
2021/12/12 01:53:36;;;;;;;2.60;0.73;;;;;;;;;;5014254;28;20110;-61
2021/12/12 01:56:03;;;;;;;2.03;0.77;;;;;;;;;;5013971;28;20478;-61
2021/12/12 01:58:30;;;;;;;3.55;0.93;;;;;;;;;;5012468;28;20022;-61
2021/12/12 02:01:09;;;;;;;3.58;1.48;;;;;;;;;;5014073;28;20046;-61
2021/12/12 02:03:37;;;;;;;3.55;1.00;;;;;;;;;;5013729;28;20107;-61
2021/12/12 02:06:06;;;;;;;0.88;0.68;;;;;;;;;;5013840;28;20109;-60
2021/12/12 02:08:33;;;;;;;2.92;0.98;;;;;;;;;;5013844;28;20072;-62
2021/12/12 02:11:09;;;;;;;2.85;0.88;;;;;;;;;;5013767;28;20034;-62
2021/12/12 02:13:40;;;;;;;1.95;0.52;;;;;;;;;;5013482;28;20531;-61
2021/12/12 02:16:06;;;;;;;;;;;;;;;;;;5014412;28;20028;-62
2021/12/12 02:18:37;;;;;;;2.42;0.82;;;;;;;;;;5013491;28;19980;-61
2021/12/12 02:21:12;;;;;;;1.48;0.60;;;;;;;;;;5013906;28;20033;-62
2021/12/12 03:18:32;;;;;;;1.15;0.65;;;;;;;;;;5088524;27;20390;-65
2021/12/12 03:21:01;;;;;;;0.90;0.52;;;;;;;;;;5090319;28;20466;-66
2021/12/12 03:23:30;;;;;;;1.65;0.60;;;;;;;;;;5089254;28;20016;-62
2021/12/12 03:26:01;;;;;;;3.08;0.52;;;;;;;;;;5088347;28;20363;-65
2021/12/12 03:28:29;;;;;;;0.65;0.40;;;;;;;;;;5089517;28;20027;-64
2021/12/12 03:30:57;;;;;;;0.70;0.40;;;;;;;;;;5090508;28;20025;-63
2021/12/12 03:33:24;;;;;;;0.63;0.40;;;;;;;;;;5089812;28;20020;-63
2021/12/12 03:35:51;;;;;;;1.05;0.70;;;;;;;;;;5089834;28;20016;-63
2021/12/12 03:38:18;;;;;;;1.10;0.60;;;;;;;;;;5089153;28;20035;-64
2021/12/12 03:40:45;;;;;;;3.10;0.65;;;;;;;;;;5088926;28;20078;-64
2021/12/12 03:43:12;;;;;;;1.65;0.77;;;;;;;;;;5089073;28;20017;-62
2021/12/12 03:45:39;;;;;;;3.45;1.00;;;;;;;;;;5089178;28;20050;-64
2021/12/12 03:48:12;;;;;;;2.42;0.55;;;;;;;;;;5089199;28;20032;-62
2021/12/12 03:50:39;;;;;;;1.60;0.70;;;;;;;;;;5090000;28;20493;-64
2021/12/12 03:53:06;;;;;;;1.35;0.60;;;;;;;;;;5089525;28;20033;-64
2021/12/12 03:55:33;;;;;;;2.72;0.90;;;;;;;;;;5089672;28;20378;-63
2021/12/12 03:57:59;;;;;;;2.97;0.68;;;;;;;;;;5089375;28;20574;-62
2021/12/12 04:00:28;;;;;;;1.48;0.80;;;;;;;;;;5089426;28;20012;-63
2021/12/12 04:02:55;;;;;;;7.25;1.73;;;;;;;;;;5089500;28;20107;-64
2021/12/12 04:05:22;;;;;;;2.22;0.80;;;;;;;;;;5089293;28;20024;-64
2021/12/12 04:07:49;;;;;;;2.13;0.90;;;;;;;;;;5089118;28;20020;-63
2021/12/12 04:10:19;;;;;;;4.03;1.30;;;;;;;;;;5088912;28;20024;-61
2021/12/12 04:12:46;;;;;;;2.63;1.30;;;;;;;;;;5088615;28;20028;-62
2021/12/12 04:15:12;;;;;;;2.45;1.05;;;;;;;;;;5088258;28;20017;-62
2021/12/12 04:17:38;;;;;;;2.70;1.05;;;;;;;;;;5085485;28;20090;-62
2021/12/12 04:20:09;;;;;;;3.17;1.40;;;;;;;;;;5075346;28;20017;-63
2021/12/12 04:22:35;;;;;;;1.90;0.77;;;;;;;;;;5075378;28;20527;-63
2021/12/12 04:25:01;;;;;;;1.05;0.57;;;;;;;;;;5075292;28;20029;-62
2021/12/12 04:27:27;;;;;;;1.40;0.80;;;;;;;;;;5075530;28;20029;-62
2021/12/12 04:29:54;;;;;;;2.60;1.00;;;;;;;;;;5075442;28;20020;-62
2021/12/12 04:32:25;;;;;;;2.70;1.05;;;;;;;;;;5075108;28;20701;-63
2021/12/12 04:34:54;;;;;;;1.42;0.70;;;;;;;;;;5075429;28;20056;-63
2021/12/12 04:37:20;;;;;;;4.10;1.17;;;;;;;;;;5075208;28;20030;-63
2021/12/12 04:39:50;;;;;;;3.15;1.38;;;;;;;;;;5075508;28;20074;-62
2021/12/12 04:42:19;;;;;;;2.13;0.98;;;;;;;;;;5075037;28;20025;-63
2021/12/12 04:44:47;;;;;;;2.70;0.98;;;;;;;;;;5074488;28;20348;-63
2021/12/12 04:50:33;;;;;;;1.75;0.70;;;;;;;;;;5075088;28;20028;-63
2021/12/12 04:52:59;;;;;;;1.48;0.80;;;;;;;;;;5075022;28;20036;-63
2021/12/12 04:55:30;;;;;;;3.25;1.67;;;;;;;;;;5075220;28;20382;-64
2021/12/12 04:57:56;;;;;;;;;;;;;;;;;;5074989;28;20382;-62
2021/12/12 05:00:26;;;;;;;2.72;1.60;;;;;;;;;;5075170;28;19905;-62
2021/12/12 05:02:52;;;;;;;8.90;3.55;;;;;;;;;;5074452;28;20027;-62
2021/12/12 05:05:38;;;;;;;2.25;1.45;;;;;;;;;;5074146;28;20035;-63
2021/12/12 05:08:04;;;;;;;3.13;1.50;;;;;;;;;;5067446;28;20037;-62
2021/12/12 05:10:37;;;;;;;4.28;1.60;;;;;;;;;;5074311;28;20074;-62
2021/12/12 05:13:07;;;;;;;3.88;1.75;;;;;;;;;;5074803;28;20024;-62
2021/12/12 05:15:48;;;;;;;5.13;2.20;;;;;;;;;;5074278;28;20025;-63
2021/12/12 05:18:20;;;;;;;3.00;1.45;;;;;;;;;;5073959;28;20047;-62
2021/12/12 05:20:49;;;;;;;2.03;0.98;;;;;;;;;;5074246;28;20017;-63
2021/12/12 05:23:17;;;;;;;2.28;0.98;;;;;;;;;;5074279;28;20618;-63
2021/12/12 05:25:51;;;;;;;1.70;1.05;;;;;;;;;;5072779;28;20016;-62
2021/12/12 05:28:19;;;;;;;2.05;0.90;;;;;;;;;;5073489;28;20417;-63
2021/12/12 05:30:46;;;;;;;4.00;0.90;;;;;;;;;;5072885;28;20466;-62
2021/12/12 05:33:14;;;;;;;2.30;0.98;;;;;;;;;;5073835;28;20031;-63
2021/12/12 05:35:40;;;;;;;2.15;1.00;;;;;;;;;;5073832;28;20024;-62
2021/12/12 05:38:08;;;;;;;1.20;0.68;;;;;;;;;;5072308;28;20467;-63
2021/12/12 05:40:35;;;;;;;2.42;0.93;;;;;;;;;;5073295;28;20479;-64
2021/12/12 05:43:02;;;;;;;2.42;1.17;;;;;;;;;;5073006;28;20021;-62
2021/12/12 05:45:29;;;;;;;3.20;1.15;;;;;;;;;;5073197;28;20070;-63
2021/12/12 05:47:55;;;;;;;1.00;0.65;;;;;;;;;;5073077;28;20106;-62
2021/12/12 05:50:22;;;;;;;4.70;1.25;;;;;;;;;;5072686;28;20382;-62
2021/12/12 05:52:53;;;;;;;1.17;0.77;;;;;;;;;;5073642;28;20020;-61
2021/12/12 05:55:19;;;;;;;;;;;;;;;;;;5073842;28;20017;-62
2021/12/12 05:57:53;;;;;;;1.40;0.85;;;;;;;;;;5073366;28;19936;-62
2021/12/12 06:00:19;;;;;;;1.55;0.80;;;;;;;;;;5072290;28;20024;-64
2021/12/12 06:02:46;;;;;;;1.88;0.98;;;;;;;;;;5073101;28;20016;-62
2021/12/12 06:05:12;;;;;;;2.03;1.10;;;;;;;;;;5072623;28;20021;-61
2021/12/12 06:07:39;;;;;;;2.70;1.05;;;;;;;;;;5072699;28;20025;-61
2021/12/12 06:10:10;;;;;;;5.00;1.27;;;;;;;;;;5073179;28;20025;-61
2021/12/12 06:12:37;;;;;;;4.15;1.77;;;;;;;;;;5072967;28;20021;-61
2021/12/12 06:15:06;;;;;;;20.10;6.57;;;;;;;;;;5071094;28;20133;-62
2021/12/12 06:17:32;;;;;;;20.92;7.85;;;;;;;;;;5070588;28;20051;-62
2021/12/12 06:19:59;;;;;;;22.73;7.93;;;;;;;;;;5072535;28;20025;-62
2021/12/12 06:22:25;;;;;;;17.48;7.93;;;;;;;;;;5073565;28;20025;-62
2021/12/12 06:24:53;;;;;;;14.63;6.03;;;;;;;;;;5072173;28;20016;-62
2021/12/12 06:27:19;;;;;;;8.68;3.83;;;;;;;;;;5072216;28;20060;-63
2021/12/12 06:29:48;;;;;;;8.82;3.15;;;;;;;;;;5071552;28;20024;-63
2021/12/12 06:32:14;;;;;;;3.95;1.60;;;;;;;;;;5071717;28;20494;-63
2021/12/12 06:34:41;;;;;;;4.57;1.75;;;;;;;;;;5071743;28;20487;-62
2021/12/12 06:37:08;;;;;;;3.65;1.80;;;;;;;;;;5071883;28;20029;-64
2021/12/12 06:39:34;;;;;;;4.55;1.90;;;;;;;;;;5073286;28;20052;-64
2021/12/12 06:42:00;;;;;;;4.90;2.13;;;;;;;;;;5072576;28;20678;-63
2021/12/12 06:44:27;;;;;;;3.17;1.50;;;;;;;;;;5070702;28;20382;-52
2021/12/12 06:46:54;;;;;;;4.57;1.70;;;;;;;;;;5072093;28;20029;-63
2021/12/12 06:49:20;;;;;;;3.67;1.63;;;;;;;;;;5072200;28;20347;-63
2021/12/12 06:51:51;;;;;;;4.43;1.85;;;;;;;;;;5073745;28;20025;-63
2021/12/12 06:54:20;;;;;;;6.00;2.50;;;;;;;;;;5073596;28;20056;-63
2021/12/12 06:56:48;;;;;;;3.45;2.00;;;;;;;;;;5072045;28;20025;-63
2021/12/12 06:59:14;;;;;;;5.95;2.05;;;;;;;;;;5073557;28;20025;-63
2021/12/12 07:01:41;;;;;;;4.35;2.00;;;;;;;;;;5072361;28;20067;-64
2021/12/12 07:04:09;;;;;;;3.97;2.30;;;;;;;;;;5071790;28;20046;-63
2021/12/12 07:06:36;;;;;;;4.00;1.58;;;;;;;;;;5072986;28;20382;-62
2021/12/12 07:09:04;;;;;;;4.65;2.42;;;;;;;;;;5073235;28;20020;-62
2021/12/12 07:11:31;;;;;;;4.68;3.03;;;;;;;;;;5073369;28;20055;-60
2021/12/12 07:13:58;;;;;;;7.22;2.90;;;;;;;;;;5072531;28;20017;-61
2021/12/12 07:16:25;;;;;;;8.38;3.70;;;;;;;;;;5072045;28;20041;-62
2021/12/12 07:18:52;;;;;;;9.00;3.95;;;;;;;;;;5073343;28;20435;-62
2021/12/12 07:21:18;;;;;;;7.90;4.25;;;;;;;;;;5073337;28;20028;-63
2021/12/12 07:23:47;;;;;;;6.15;3.58;;;;;;;;;;5072505;28;20467;-62
2021/12/12 07:26:15;;;;;;;7.22;3.50;;;;;;;;;;5073302;28;20425;-64
2021/12/12 07:28:42;;;;;;;8.27;3.05;;;;;;;;;;5072974;28;20031;-64
2021/12/12 07:31:10;;;;;;;6.47;2.95;;;;;;;;;;5072039;28;20362;-64
2021/12/12 07:33:36;;;;;;;5.90;2.85;;;;;;;;;;5072909;28;20019;-63
2021/12/12 07:36:04;;;;;;;7.80;2.95;;;;;;;;;;5072403;28;20024;-65
2021/12/12 07:38:31;;;;;;;7.80;3.72;;;;;;;;;;5072458;28;20490;-65
2021/12/12 07:40:58;;;;;;;8.65;3.80;;;;;;;;;;5072846;28;20105;-64
2021/12/12 07:43:29;;;;;;;12.60;4.47;;;;;;;;;;5073353;28;20020;-69
2021/12/12 07:45:56;;;;;;;8.38;4.22;;;;;;;;;;5072380;28;20028;-62
2021/12/12 07:48:22;;;;;;;9.60;4.00;;;;;;;;;;5071125;28;20028;-63
2021/12/12 07:50:50;;;;;;;7.50;4.10;;;;;;;;;;5071767;28;20540;-60
2021/12/12 07:53:17;;;;;;;7.88;3.63;;;;;;;;;;5072426;28;20020;-62
2021/12/12 07:55:44;;;;;;;10.65;4.07;;;;;;;;;;5075367;28;20411;-61
2021/12/12 07:58:13;;;;;;;11.02;2.97;;;;;;;;;;5074807;28;20041;-63
2021/12/12 08:00:41;;;;;;;7.20;3.15;;;;;;;;;;5075179;28;20402;-62
2021/12/12 08:03:07;;;;;;;4.85;2.70;;;;;;;;;;5076341;28;20351;-62
2021/12/12 08:05:35;;;;;;;7.88;3.05;;;;;;;;;;5075954;28;20021;-61
2021/12/12 08:08:04;;;;;;;6.53;3.30;;;;;;;;;;5076263;28;20040;-62
2021/12/12 08:10:30;;;;;;;8.38;4.10;;;;;;;;;;5076253;28;20130;-61
2021/12/12 08:12:57;;;;;;;7.70;3.47;;;;;;;;;;5075961;28;20038;-62
2021/12/12 08:15:24;;;;;;;6.15;3.03;;;;;;;;;;5067743;28;20055;-62
2021/12/12 08:17:51;;;;;;;5.35;2.97;;;;;;;;;;5062082;28;20045;-63
2021/12/12 08:20:18;;;;;;;7.95;3.70;;;;;;;;;;5069040;28;20071;-61
2021/12/12 08:22:47;;;;;;;6.53;3.30;;;;;;;;;;5058745;28;20478;-63
2021/12/12 08:25:13;;;;;;;7.88;3.55;;;;;;;;;;5075189;28;20025;-63
2021/12/12 08:27:40;;;;;;;8.48;3.97;;;;;;;;;;5075481;28;20021;-62
2021/12/12 08:30:07;;;;;;;7.47;3.80;;;;;;;;;;5075795;28;20102;-64
2021/12/12 08:32:33;;;;;;;7.15;3.55;;;;;;;;;;5076074;28;20498;-63
2021/12/12 08:34:59;;;;;;;7.22;3.28;;;;;;;;;;5056698;28;20079;-63
2021/12/12 08:37:29;;;;;;;5.75;3.25;;;;;;;;;;5055495;28;20029;-62
2021/12/12 08:39:56;;;;;;;10.63;4.22;;;;;;;;;;5054579;28;20032;-63
2021/12/12 08:42:27;;;;;;;7.70;3.15;;;;;;;;;;5055283;28;20070;-61
2021/12/12 08:44:57;;;;;;;6.95;3.55;;;;;;;;;;5055417;28;20021;-64
2021/12/12 08:47:23;;;;;;;5.15;3.03;;;;;;;;;;5060686;28;20078;-62
2021/12/12 08:49:49;;;;;;;5.82;2.63;;;;;;;;;;5065091;28;20688;-63
2021/12/12 08:52:25;;;;;;;5.28;2.33;;;;;;;;;;5063921;28;20503;-63
2021/12/12 08:54:53;;;;;;;5.57;2.78;;;;;;;;;;5062880;28;20496;-63
2021/12/12 08:57:33;;;;;;;4.82;2.35;;;;;;;;;;5063733;28;20111;-64
2021/12/12 09:00:00;;;;;;;5.60;2.70;;;;;;;;;;5063474;28;20021;-64
2021/12/12 09:02:27;;;;;;;4.28;2.45;;;;;;;;;;5055037;28;20094;-63
2021/12/12 09:05:00;;;;;;;9.35;3.35;;;;;;;;;;5060592;28;20025;-64
2021/12/12 09:07:31;;;;;;;7.88;3.17;;;;;;;;;;5064359;28;20025;-61
2021/12/12 09:09:57;;;;;;;;;;;;;;;;;;5064451;28;20032;-61
2021/12/12 09:12:30;;;;;;;8.10;3.35;;;;;;;;;;5064554;28;19904;-65
2021/12/12 09:15:02;;;;;;;10.38;4.95;;;;;;;;;;5060759;28;20025;-64
2021/12/12 09:17:34;;;;;;;13.73;5.63;;;;;;;;;;5057856;28;20072;-65
2021/12/12 09:20:21;;;;;;;8.38;4.53;;;;;;;;;;5056062;28;20491;-64
2021/12/12 09:22:59;;;;;;;13.18;5.95;;;;;;;;;;5063460;28;20074;-64
2021/12/12 09:25:37;;;;;;;8.60;4.82;;;;;;;;;;5060814;28;20025;-63
2021/12/12 09:28:06;;;;;;;8.98;4.55;;;;;;;;;;5054797;28;20021;-65
2021/12/12 09:30:32;;;;;;;8.95;4.20;;;;;;;;;;5054826;28;20021;-64
2021/12/12 09:33:02;;;;;;;7.63;4.00;;;;;;;;;;5054081;28;20115;-64
2021/12/12 09:35:37;;;;;;;11.60;5.15;;;;;;;;;;5054028;28;20495;-65
2021/12/12 09:38:15;;;;;;;12.20;5.75;;;;;;;;;;5054097;28;20024;-63
2021/12/12 09:40:41;;;;;;;11.07;4.97;;;;;;;;;;5066274;28;20037;-63
2021/12/12 09:43:11;;;;;;;11.52;5.22;;;;;;;;;;5056936;28;20025;-65
2021/12/12 09:45:37;;;;;;;14.43;6.07;;;;;;;;;;5054260;28;20052;-63
2021/12/12 09:51:15;;;;;;;12.07;6.30;;;;;;;;;;5048424;28;20032;-62
2021/12/12 09:54:00;;;;;;;11.35;4.95;;;;;;;;;;5053992;28;20044;-63
2021/12/12 09:56:26;;;;;;;10.75;5.38;;;;;;;;;;5053003;28;20681;-62
2021/12/12 09:59:11;;;;;;;10.07;5.35;;;;;;;;;;5053531;28;20025;-62
2021/12/12 10:01:40;;;;;;;9.27;5.15;;;;;;;;;;5054059;28;20035;-62
2021/12/12 10:04:06;;;;;;;12.65;6.35;;;;;;;;;;5053227;28;20096;-56
2021/12/12 10:06:45;;;;;;;11.65;6.28;;;;;;;;;;5053551;28;20033;-65
2021/12/12 10:09:15;;;;;;;11.15;5.97;;;;;;;;;;5059995;28;20039;-61
2021/12/12 10:11:44;;;;;;;11.93;6.10;;;;;;;;;;5057806;28;20027;-61
2021/12/12 10:14:18;;;;;;;12.70;5.93;;;;;;;;;;5058601;28;20046;-64
2021/12/12 10:16:50;;;;;;;10.02;6.35;;;;;;;;;;5064503;28;20375;-62
2021/12/12 10:19:35;;;;;;;12.32;7.10;;;;;;;;;;5062258;28;20009;-61
2021/12/12 10:22:20;;;;;;;17.20;7.90;;;;;;;;;;5062329;28;20360;-63
2021/12/12 10:24:49;;;;;;;15.23;7.85;;;;;;;;;;5062910;28;20035;-62
2021/12/12 10:27:24;;;;;;;18.88;8.45;;;;;;;;;;5062179;28;20024;-62
2021/12/12 10:29:57;;;;;;;14.23;7.80;;;;;;;;;;5063855;28;20024;-61
2021/12/12 10:32:26;;;;;;;18.25;8.82;;;;;;;;;;5073568;28;20486;-63
2021/12/12 10:34:57;;;;;;;19.48;9.40;;;;;;;;;;5070619;28;20077;-62
2021/12/12 10:37:30;;;;;;;17.35;8.73;;;;;;;;;;5065773;28;20033;-62
2021/12/12 10:39:59;;;;;;;19.52;9.13;;;;;;;;;;5061245;28;20027;-62
2021/12/12 10:42:33;;;;;;;17.98;8.93;;;;;;;;;;5072202;28;20020;-63
2021/12/12 10:45:02;;;;;;;16.95;8.93;;;;;;;;;;5073907;28;20025;-62
2021/12/12 10:47:30;;;;;;;12.45;7.38;;;;;;;;;;5064202;28;20126;-63
2021/12/12 10:50:02;;;;;;;15.73;8.00;;;;;;;;;;5053607;28;20025;-62
2021/12/12 10:52:47;;;;;;;17.08;8.35;;;;;;;;;;5056059;28;20163;-62
2021/12/12 10:55:36;;;;;;;13.43;7.55;;;;;;;;;;5063831;28;20028;-62
2021/12/12 10:58:12;;;;;;;16.58;7.80;;;;;;;;;;5062697;28;20028;-61
2021/12/12 11:00:44;;;;;;;14.63;7.78;;;;;;;;;;5062245;28;20018;-63
2021/12/12 11:03:17;;;;;;;14.60;8.05;;;;;;;;;;5061667;28;20509;-62
2021/12/12 11:05:48;;;;;;;19.45;9.23;;;;;;;;;;5067661;28;20031;-63
2021/12/12 11:08:23;;;;;;;17.23;9.27;;;;;;;;;;5066032;28;20025;-70
2021/12/12 11:10:50;;;;;;;16.23;8.27;;;;;;;;;;5058930;28;20025;-62
2021/12/12 11:13:21;;;;;;;16.23;8.48;;;;;;;;;;5061278;28;20025;-62
2021/12/12 11:15:54;;;;;;;14.80;6.88;;;;;;;;;;5061140;28;20463;-62
2021/12/12 11:18:24;;;;;;;15.50;7.32;;;;;;;;;;5062754;28;20048;-64
2021/12/12 11:20:58;;;;;;;12.38;6.25;;;;;;;;;;5055806;28;20029;-63
2021/12/12 11:23:30;;;;;;;9.90;5.75;;;;;;;;;;5053266;28;20049;-64
2021/12/12 11:25:58;;;;;;;11.32;5.72;;;;;;;;;;5055526;28;20025;-64
2021/12/12 11:28:28;;;;;;;13.52;7.13;;;;;;;;;;5054227;28;20086;-63
2021/12/12 11:31:00;;;;;;;10.82;5.68;;;;;;;;;;5056764;28;20028;-60
2021/12/12 11:33:27;;;;;;;8.65;5.75;;;;;;;;;;5056774;28;20047;-62
2021/12/12 11:35:54;;;;;;;9.90;6.05;;;;;;;;;;5073572;28;20107;-62
2021/12/12 11:38:35;;;;;;;10.68;5.60;;;;;;;;;;5059482;28;20025;-61
2021/12/12 11:41:13;;;;;;;11.13;5.03;;;;;;;;;;5058499;28;20068;-62
2021/12/12 11:43:42;;;;;;;12.63;6.32;;;;;;;;;;5076375;28;20024;-63
2021/12/12 11:46:14;;;;;;;13.77;6.05;;;;;;;;;;5070165;28;20017;-63
2021/12/12 11:48:48;;;;;;;13.20;5.68;;;;;;;;;;5069224;28;20032;-62
2021/12/12 11:51:14;;;;;;;9.95;5.90;;;;;;;;;;5076222;28;20020;-65
2021/12/12 11:53:49;;;;;;;14.25;7.97;;;;;;;;;;5076773;28;20027;-67
2021/12/12 11:56:21;;;;;;;17.92;7.30;;;;;;;;;;5076162;28;20016;-67
2021/12/12 11:58:47;;;;;;;12.43;7.55;;;;;;;;;;5076638;28;20111;-61
2021/12/12 12:01:34;;;;;;;16.75;8.60;;;;;;;;;;5076328;28;20017;-63
2021/12/12 12:04:23;;;;;;;14.10;7.75;;;;;;;;;;5076286;28;20070;-61
2021/12/12 12:07:08;;;;;;;17.15;8.95;;;;;;;;;;5075580;28;20021;-61
2021/12/12 12:09:51;;;;;;;15.55;8.15;;;;;;;;;;5075889;28;20035;-63
2021/12/12 12:12:20;;;;;;;17.40;9.23;;;;;;;;;;5075976;28;20021;-60
2021/12/12 12:14:46;;;;;;;15.45;8.23;;;;;;;;;;5076279;28;20099;-60
2021/12/12 12:17:29;;;;;;;23.17;13.18;;;;;;;;;;5075963;28;20040;-63
2021/12/12 12:20:04;;;;;;;22.60;10.80;;;;;;;;;;5076376;28;20020;-61
2021/12/12 12:22:44;;;;;;;21.45;10.60;;;;;;;;;;5076634;28;20021;-61
2021/12/12 12:25:19;;;;;;;24.13;11.53;;;;;;;;;;5075264;28;20462;-60
2021/12/12 12:27:54;;;;;;;23.75;11.38;;;;;;;;;;5074703;28;20056;-61
2021/12/12 12:30:39;;;;;;;28.73;13.65;;;;;;;;;;5075462;28;20404;-60
2021/12/12 12:33:14;;;;;;;20.73;10.05;;;;;;;;;;5075463;28;20020;-61
2021/12/12 12:35:40;;;;;;;22.88;10.65;;;;;;;;;;5075985;28;20025;-61
2021/12/12 12:38:12;;;;;;;21.65;10.38;;;;;;;;;;5075895;28;20047;-63
2021/12/12 12:40:38;;;;;;;;;;;;;;;;;;5075626;28;20021;-60
2021/12/12 12:43:22;;;;;;;22.08;10.60;;;;;;;;;;5075181;28;20373;-63
2021/12/12 12:46:07;;;;;;;24.38;11.73;;;;;;;;;;5074659;28;20021;-62
2021/12/12 12:48:46;;;;;;;28.80;13.65;;;;;;;;;;5076026;28;20388;-62
2021/12/12 12:51:12;;;;;;;28.52;14.40;;;;;;;;;;5075696;28;20031;-62
2021/12/12 12:53:47;;;;;;;31.40;14.55;;;;;;;;;;5075468;28;20020;-62
2021/12/12 12:56:32;;;;;;;28.80;13.98;;;;;;;;;;5075657;28;20475;-62
2021/12/12 12:58:58;;;;;;;25.50;14.43;;;;;;;;;;5075063;28;20455;-61
2021/12/12 13:01:30;;;;;;;34.30;15.63;;;;;;;;;;5075315;28;20048;-63
2021/12/12 13:04:15;;;;;;;24.88;12.77;;;;;;;;;;5075813;28;20016;-62
2021/12/12 13:07:03;;;;;;;21.63;12.32;;;;;;;;;;5075129;28;20058;-61
2021/12/12 13:09:55;;;;;;;19.83;10.60;;;;;;;;;;5075810;28;20035;-63
2021/12/12 13:12:43;;;;;;;18.98;10.05;;;;;;;;;;5059213;28;20028;-64
2021/12/12 13:15:45;;;;;;;17.55;9.93;;;;;;;;;;5075048;28;20059;-62
2021/12/12 13:18:26;;;;;;;18.58;8.75;;;;;;;;;;5076473;28;20128;-62
2021/12/12 13:21:11;;;;;;;16.85;8.65;;;;;;;;;;5074939;28;20020;-62
2021/12/12 13:23:48;;;;;;;14.82;8.07;;;;;;;;;;5074925;28;20421;-62
2021/12/12 13:26:19;;;;;;;15.30;7.70;;;;;;;;;;5074820;28;20024;-62
2021/12/12 13:29:14;;;;;;;14.50;7.70;;;;;;;;;;5074909;28;20060;-62
2021/12/12 13:31:42;;;;;;;13.68;8.05;;;;;;;;;;5055831;28;20376;-61
2021/12/12 13:34:08;;;;;;;15.15;9.32;;;;;;;;;;5074377;28;20459;-62
2021/12/12 13:36:44;;;;;;;13.63;7.68;;;;;;;;;;5075256;28;20035;-63
2021/12/12 13:39:14;;;;;;;16.52;7.75;;;;;;;;;;5073599;28;20467;-63
2021/12/12 13:41:49;;;;;;;12.80;7.55;;;;;;;;;;5074564;28;20034;-63
2021/12/12 13:44:30;;;;;;;14.85;8.38;;;;;;;;;;5074827;28;20049;-62
2021/12/12 13:47:03;;;;;;;19.27;9.98;;;;;;;;;;5073965;28;20434;-62
2021/12/12 13:49:34;;;;;;;15.18;8.65;;;;;;;;;;5074018;28;20028;-63
2021/12/12 13:52:00;;;;;;;;;;;;;;;;;;5072868;28;20032;-61
2021/12/12 13:54:39;;;;;;;15.07;7.38;;;;;;;;;;5074582;28;19905;-62
2021/12/12 13:57:25;;;;;;;20.08;8.75;;;;;;;;;;5074091;28;20478;-62
2021/12/12 13:59:51;;;;;;;14.82;8.88;;;;;;;;;;5074013;28;20032;-62
2021/12/12 14:02:18;;;;;;;19.23;10.80;;;;;;;;;;5074049;28;20020;-62
2021/12/12 14:04:50;;;;;;;20.33;9.80;;;;;;;;;;5074378;28;20367;-62
2021/12/12 14:07:18;;;;;;;20.42;10.95;;;;;;;;;;5073943;28;20028;-63
2021/12/12 14:09:47;;;;;;;23.23;11.18;;;;;;;;;;5073695;28;20032;-62
2021/12/12 14:12:13;;;;;;;27.27;13.70;;;;;;;;;;5074171;28;20027;-62
2021/12/12 14:14:47;;;;;;;30.20;14.20;;;;;;;;;;5073869;28;20158;-63
2021/12/12 14:17:32;;;;;;;31.77;14.27;;;;;;;;;;5073637;28;20045;-62
2021/12/12 14:20:04;;;;;;;33.30;14.98;;;;;;;;;;5073878;28;20466;-62
2021/12/12 14:22:31;;;;;;;26.10;12.50;;;;;;;;;;5073871;28;20033;-62
2021/12/12 14:28:04;;;;;;;28.45;14.13;;;;;;;;;;5056385;28;20468;-62
2021/12/12 14:30:34;;;;;;;28.52;15.10;;;;;;;;;;5073680;28;20186;-63
2021/12/12 14:33:02;;;;;;;25.85;14.60;;;;;;;;;;5072467;28;20038;-64
2021/12/12 14:35:34;;;;;;;27.70;13.70;;;;;;;;;;5073395;28;20107;-63
2021/12/12 14:38:01;;;;;;;26.05;14.13;;;;;;;;;;5073709;28;20407;-64
2021/12/12 14:40:30;;;;;;;26.92;13.38;;;;;;;;;;5072939;28;20017;-62
2021/12/12 14:43:00;;;;;;;26.50;12.60;;;;;;;;;;5073621;28;20078;-63
2021/12/12 14:45:34;;;;;;;25.67;12.00;;;;;;;;;;5073296;28;20100;-62
2021/12/12 14:48:03;;;;;;;15.57;8.25;;;;;;;;;;5073040;28;20425;-62
2021/12/12 14:50:55;;;;;;;11.30;6.30;;;;;;;;;;5073936;28;20017;-63
2021/12/12 14:53:24;;;;;;;12.68;5.43;;;;;;;;;;5071681;28;20028;-63
2021/12/12 14:55:54;;;;;;;9.77;4.88;;;;;;;;;;5073643;28;20116;-64
2021/12/12 14:58:22;;;;;;;8.18;4.75;;;;;;;;;;5073826;28;20024;-64
2021/12/12 15:00:57;;;;;;;11.38;5.45;;;;;;;;;;5073666;28;20024;-63
2021/12/12 15:03:28;;;;;;;14.10;7.85;;;;;;;;;;5073239;28;20027;-62
2021/12/12 15:06:00;;;;;;;13.50;6.25;;;;;;;;;;5073404;28;20107;-63
2021/12/12 15:08:26;;;;;;;13.00;6.55;;;;;;;;;;5073451;28;20463;-64
2021/12/12 15:10:58;;;;;;;13.50;6.03;;;;;;;;;;5073183;28;20115;-64
2021/12/12 15:13:25;;;;;;;11.73;5.93;;;;;;;;;;5072708;28;20378;-62
2021/12/12 15:16:03;;;;;;;14.68;7.82;;;;;;;;;;5073326;28;20024;-62
2021/12/12 15:18:34;;;;;;;7.78;4.05;;;;;;;;;;5073561;28;20479;-64
2021/12/12 15:21:12;;;;;;;7.50;4.55;;;;;;;;;;5072862;28;20032;-62
2021/12/12 15:23:41;;;;;;;8.65;4.80;;;;;;;;;;5073792;28;20092;-63
2021/12/12 15:26:17;;;;;;;12.32;5.50;;;;;;;;;;5073056;28;20047;-62
2021/12/12 15:28:49;;;;;;;6.65;4.30;;;;;;;;;;5073590;28;20036;-64
2021/12/12 15:31:17;;;;;;;11.32;5.32;;;;;;;;;;5073408;28;20028;-64
2021/12/12 15:33:47;;;;;;;10.02;4.88;;;;;;;;;;5072975;28;20046;-62
2021/12/12 15:36:21;;;;;;;13.13;5.13;;;;;;;;;;5073400;28;20066;-62
2021/12/12 15:38:48;;;;;;;13.93;6.20;;;;;;;;;;5073406;28;20044;-62
2021/12/12 15:41:17;;;;;;;13.63;7.90;;;;;;;;;;5072625;28;20531;-63
2021/12/12 15:43:49;;;;;;;17.73;9.00;;;;;;;;;;5073168;28;20025;-63
2021/12/12 15:46:16;;;;;;;16.45;8.65;;;;;;;;;;5073113;28;20082;-64
2021/12/12 15:48:47;;;;;;;16.95;9.90;;;;;;;;;;5072888;28;20032;-64
2021/12/12 15:51:16;;;;;;;18.25;8.50;;;;;;;;;;5072898;28;20044;-61
2021/12/12 15:53:47;;;;;;;17.42;8.43;;;;;;;;;;5071755;28;20130;-63
2021/12/12 15:56:15;;;;;;;;;;;;;;;;;;5072885;28;20425;-62
2021/12/12 15:58:48;;;;;;;19.52;9.85;;;;;;;;;;5073087;28;19915;-62
2021/12/12 16:01:16;;;;;;;31.48;13.27;;;;;;;;;;5073250;28;20112;-63
2021/12/12 16:03:48;;;;;;;24.73;13.88;;;;;;;;;;5073029;28;20069;-63
2021/12/12 16:06:24;;;;;;;26.92;14.43;;;;;;;;;;5072946;28;20016;-62